createdAt,value
2022-11-23T00:00:03.573Z,5.00
2022-11-23T00:01:03.483Z,5.10
2022-11-23T00:02:03.632Z,5.10
2022-11-23T00:03:03.474Z,5.10
2022-11-23T00:04:03.439Z,5.10
2022-11-23T00:05:03.455Z,5.10
2022-11-23T00:06:03.408Z,5.10
2022-11-23T00:07:03.491Z,5.10
2022-11-23T00:08:03.369Z,5.10
2022-11-23T00:09:03.351Z,5.10
2022-11-23T00:10:03.405Z,5.10
2022-11-23T00:11:03.457Z,5.10
2022-11-23T00:12:03.456Z,5.10
2022-11-23T00:13:03.463Z,5.10
2022-11-23T00:14:03.378Z,5.10
2022-11-23T00:15:03.379Z,5.10
2022-11-23T00:16:03.352Z,5.10
2022-11-23T00:17:03.350Z,5.10
2022-11-23T00:18:03.284Z,5.10
2022-11-23T00:19:03.255Z,5.10
2022-11-23T00:20:03.178Z,5.10
2022-11-23T00:21:03.120Z,5.10
2022-11-23T00:22:03.028Z,5.10
2022-11-23T00:23:03.035Z,5.10
2022-11-23T00:24:02.986Z,5.10
2022-11-23T00:25:02.999Z,5.10
2022-11-23T00:26:02.816Z,5.10
2022-11-23T00:27:02.732Z,5.10
2022-11-23T00:28:02.769Z,5.10
2022-11-23T00:29:02.724Z,5.10
2022-11-23T00:30:02.596Z,5.10
2022-11-23T00:31:02.606Z,5.10
2022-11-23T00:32:03.530Z,5.10
2022-11-23T00:33:03.425Z,5.10
2022-11-23T00:34:03.425Z,5.10
2022-11-23T00:35:03.392Z,5.10
2022-11-23T00:36:03.401Z,5.10
2022-11-23T00:37:03.338Z,5.10
2022-11-23T00:38:03.250Z,5.10
2022-11-23T00:39:03.270Z,5.10
2022-11-23T00:40:03.113Z,5.10
2022-11-23T00:41:03.027Z,5.10
2022-11-23T00:42:02.922Z,5.10
2022-11-23T00:43:02.972Z,5.10
2022-11-23T00:44:02.952Z,5.10
2022-11-23T00:45:03.012Z,5.10
2022-11-23T00:46:02.846Z,5.10
2022-11-23T00:47:02.935Z,5.10
2022-11-23T00:48:02.866Z,5.10
2022-11-23T00:49:02.810Z,5.10
2022-11-23T00:50:02.736Z,5.10
2022-11-23T00:51:02.792Z,5.10
2022-11-23T00:52:02.785Z,5.10
2022-11-23T00:53:02.665Z,5.10
2022-11-23T00:54:02.718Z,5.10
2022-11-23T00:55:02.724Z,5.10
2022-11-23T00:56:02.722Z,5.20
2022-11-23T00:57:02.671Z,5.20
2022-11-23T00:58:03.570Z,5.20
2022-11-23T00:59:02.644Z,5.20
2022-11-23T01:00:02.668Z,5.20
2022-11-23T01:01:02.667Z,5.20
2022-11-23T01:02:02.762Z,5.20
2022-11-23T01:03:02.766Z,5.20
2022-11-23T01:04:02.692Z,5.20
2022-11-23T01:05:02.588Z,5.20
2022-11-23T01:06:02.564Z,5.20
2022-11-23T01:07:02.577Z,5.20
2022-11-23T01:08:03.614Z,5.20
2022-11-23T01:09:03.484Z,5.20
2022-11-23T01:10:03.665Z,5.20
2022-11-23T01:11:03.454Z,5.20
2022-11-23T01:12:03.390Z,5.20
2022-11-23T01:13:03.292Z,5.20
2022-11-23T01:14:03.470Z,5.20
2022-11-23T01:15:03.379Z,5.20
2022-11-23T01:16:03.386Z,5.20
2022-11-23T01:17:03.346Z,5.20
2022-11-23T01:18:03.379Z,5.20
2022-11-23T01:19:03.342Z,5.20
2022-11-23T01:20:03.332Z,5.20
2022-11-23T01:21:03.317Z,5.20
2022-11-23T01:22:03.380Z,5.20
2022-11-23T01:23:03.418Z,5.20
2022-11-23T01:24:03.374Z,5.30
2022-11-23T01:25:03.254Z,5.30
2022-11-23T01:26:03.253Z,5.30
2022-11-23T01:27:03.169Z,5.30
2022-11-23T01:28:03.187Z,5.30
2022-11-23T01:29:03.094Z,5.20
2022-11-23T01:30:03.009Z,5.20
2022-11-23T01:31:02.883Z,5.20
2022-11-23T01:32:02.957Z,5.20
2022-11-23T01:33:02.889Z,5.20
2022-11-23T01:34:02.819Z,5.20
2022-11-23T01:35:02.768Z,5.20
2022-11-23T01:36:02.737Z,5.20
2022-11-23T01:37:02.656Z,5.20
2022-11-23T01:38:03.538Z,5.20
2022-11-23T01:39:03.551Z,5.20
2022-11-23T01:40:03.385Z,5.20
2022-11-23T01:41:03.506Z,5.20
2022-11-23T01:42:03.416Z,5.20
2022-11-23T01:43:03.401Z,5.20
2022-11-23T01:44:03.292Z,5.20
2022-11-23T01:45:03.335Z,5.20
2022-11-23T01:46:03.207Z,5.20
2022-11-23T01:47:03.194Z,5.20
2022-11-23T01:48:03.182Z,5.20
2022-11-23T01:49:03.056Z,5.20
2022-11-23T01:50:03.053Z,5.20
2022-11-23T01:51:03.005Z,5.20
2022-11-23T01:52:02.895Z,5.20
2022-11-23T01:53:02.843Z,5.20
2022-11-23T01:54:03.172Z,5.20
2022-11-23T01:55:08.244Z,5.20
2022-11-23T01:56:03.180Z,5.20
2022-11-23T01:57:03.121Z,5.20
2022-11-23T01:58:03.046Z,5.20
2022-11-23T01:59:03.042Z,5.20
2022-11-23T02:00:02.983Z,5.20
2022-11-23T02:01:02.978Z,5.20
2022-11-23T02:02:02.833Z,5.20
2022-11-23T02:03:02.794Z,5.20
2022-11-23T02:04:02.806Z,5.10
2022-11-23T02:05:02.668Z,5.20
2022-11-23T02:06:02.621Z,5.10
2022-11-23T02:07:03.640Z,5.10
2022-11-23T02:08:03.426Z,5.20
2022-11-23T02:09:02.553Z,5.10
2022-11-23T02:10:03.554Z,5.10
2022-11-23T02:11:03.477Z,5.10
2022-11-23T02:12:03.391Z,5.10
2022-11-23T02:13:03.307Z,5.10
2022-11-23T02:14:03.217Z,5.10
2022-11-23T02:15:03.221Z,5.10
2022-11-23T02:16:03.138Z,5.10
2022-11-23T02:17:03.150Z,5.10
2022-11-23T02:18:03.100Z,5.10
2022-11-23T02:19:03.047Z,5.10
2022-11-23T02:20:03.027Z,5.10
2022-11-23T02:21:03.008Z,5.10
2022-11-23T02:22:02.964Z,5.10
2022-11-23T02:23:02.891Z,5.10
2022-11-23T02:24:02.817Z,5.10
2022-11-23T02:25:02.845Z,5.10
2022-11-23T02:26:02.911Z,5.10
2022-11-23T02:27:02.837Z,5.20
2022-11-23T02:28:02.821Z,5.10
2022-11-23T02:29:02.748Z,5.10
2022-11-23T02:30:02.775Z,5.10
2022-11-23T02:31:02.737Z,5.20
2022-11-23T02:32:02.743Z,5.10
2022-11-23T02:33:02.660Z,5.20
2022-11-23T02:34:02.605Z,5.10
2022-11-23T02:35:03.560Z,5.10
2022-11-23T02:36:03.472Z,5.10
2022-11-23T02:37:03.391Z,5.20
2022-11-23T02:38:03.449Z,5.20
2022-11-23T02:39:03.356Z,5.10
2022-11-23T02:40:03.290Z,5.20
2022-11-23T02:41:03.344Z,5.20
2022-11-23T02:42:03.404Z,5.10
2022-11-23T02:43:03.329Z,5.20
2022-11-23T02:44:03.420Z,5.10
2022-11-23T02:45:03.436Z,5.20
2022-11-23T02:46:03.392Z,5.20
2022-11-23T02:47:03.367Z,5.10
2022-11-23T02:48:03.222Z,5.20
2022-11-23T02:49:03.139Z,5.10
2022-11-23T02:50:03.144Z,5.20
2022-11-23T02:51:03.132Z,5.20
2022-11-23T02:52:03.113Z,5.20
2022-11-23T02:53:03.007Z,5.20
2022-11-23T02:54:02.949Z,5.20
2022-11-23T02:55:03.012Z,5.20
2022-11-23T02:56:02.891Z,5.20
2022-11-23T02:57:02.926Z,5.20
2022-11-23T02:58:02.791Z,5.20
2022-11-23T02:59:02.840Z,5.20
2022-11-23T03:00:02.737Z,5.20
2022-11-23T03:01:02.648Z,5.20
2022-11-23T03:02:02.638Z,5.20
2022-11-23T03:03:02.661Z,5.20
2022-11-23T03:04:02.588Z,5.20
2022-11-23T03:05:03.531Z,5.20
2022-11-23T03:06:03.599Z,5.20
2022-11-23T03:07:03.506Z,5.20
2022-11-23T03:08:03.476Z,5.20
2022-11-23T03:09:03.382Z,5.20
2022-11-23T03:10:03.310Z,5.20
2022-11-23T03:11:03.376Z,5.20
2022-11-23T03:12:03.257Z,5.30
2022-11-23T03:13:03.257Z,5.20
2022-11-23T03:14:03.305Z,5.30
2022-11-23T03:15:03.416Z,5.20
2022-11-23T03:16:03.354Z,5.30
2022-11-23T03:17:03.355Z,5.30
2022-11-23T03:18:03.272Z,5.30
2022-11-23T03:19:03.223Z,5.30
2022-11-23T03:20:03.146Z,5.30
2022-11-23T03:21:03.004Z,5.30
2022-11-23T03:22:02.955Z,5.30
2022-11-23T03:23:02.934Z,5.30
2022-11-23T03:24:02.970Z,5.30
2022-11-23T03:25:02.988Z,5.30
2022-11-23T03:26:03.964Z,5.30
2022-11-23T03:27:03.173Z,5.30
2022-11-23T03:28:03.197Z,5.30
2022-11-23T03:29:03.080Z,5.30
2022-11-23T03:30:03.022Z,5.30
2022-11-23T03:31:03.042Z,5.30
2022-11-23T03:32:03.148Z,5.30
2022-11-23T03:33:03.063Z,5.30
2022-11-23T03:34:03.084Z,5.30
2022-11-23T03:35:03.072Z,5.30
2022-11-23T03:36:03.149Z,5.30
2022-11-23T03:37:03.028Z,5.30
2022-11-23T03:38:03.312Z,5.30
2022-11-23T03:39:03.377Z,5.30
2022-11-23T03:40:03.263Z,5.30
2022-11-23T03:41:03.212Z,5.30
2022-11-23T03:42:03.279Z,5.30
2022-11-23T03:43:03.183Z,5.30
2022-11-23T03:44:03.243Z,5.30
2022-11-23T03:45:03.224Z,5.30
2022-11-23T03:46:03.186Z,5.30
2022-11-23T03:47:03.093Z,5.40
2022-11-23T03:48:03.042Z,5.40
2022-11-23T03:49:02.996Z,5.40
2022-11-23T03:50:02.962Z,5.40
2022-11-23T03:51:03.055Z,5.40
2022-11-23T03:52:02.927Z,5.40
2022-11-23T03:53:02.878Z,5.40
2022-11-23T03:54:02.804Z,5.40
2022-11-23T03:55:02.770Z,5.40
2022-11-23T03:56:02.820Z,5.40
2022-11-23T03:57:02.726Z,5.40
2022-11-23T03:58:02.766Z,5.40
2022-11-23T03:59:02.612Z,5.40
2022-11-23T04:00:03.527Z,5.40
2022-11-23T04:01:02.667Z,5.40
2022-11-23T04:02:02.570Z,5.40
2022-11-23T04:03:03.587Z,5.40
2022-11-23T04:04:03.466Z,5.40
2022-11-23T04:05:03.527Z,5.40
2022-11-23T04:06:03.403Z,5.40
2022-11-23T04:07:03.427Z,5.40
2022-11-23T04:08:03.420Z,5.40
2022-11-23T04:09:03.490Z,5.40
2022-11-23T04:10:03.465Z,5.40
2022-11-23T04:11:03.441Z,5.40
2022-11-23T04:12:03.422Z,5.40
2022-11-23T04:13:03.351Z,5.40
2022-11-23T04:14:03.321Z,5.30
2022-11-23T04:15:03.361Z,5.30
2022-11-23T04:16:03.366Z,5.30
2022-11-23T04:17:03.330Z,5.30
2022-11-23T04:18:03.257Z,5.30
2022-11-23T04:19:03.392Z,5.30
2022-11-23T04:20:03.249Z,5.30
2022-11-23T04:21:03.233Z,5.30
2022-11-23T04:22:03.095Z,5.30
2022-11-23T04:23:03.096Z,5.30
2022-11-23T04:24:03.142Z,5.30
2022-11-23T04:25:03.015Z,5.30
2022-11-23T04:26:03.023Z,5.20
2022-11-23T04:27:03.055Z,5.20
2022-11-23T04:28:02.992Z,5.20
2022-11-23T04:29:02.967Z,5.20
2022-11-23T04:30:02.930Z,5.20
2022-11-23T04:31:02.937Z,5.20
2022-11-23T04:32:02.861Z,5.20
2022-11-23T04:33:02.793Z,5.10
2022-11-23T04:34:02.752Z,5.10
2022-11-23T04:35:02.635Z,5.10
2022-11-23T04:36:02.645Z,5.10
2022-11-23T04:37:03.511Z,5.10
2022-11-23T04:38:03.433Z,5.00
2022-11-23T04:39:03.405Z,5.00
2022-11-23T04:40:03.434Z,5.00
2022-11-23T04:41:03.442Z,5.00
2022-11-23T04:42:03.364Z,5.00
2022-11-23T04:43:03.300Z,4.90
2022-11-23T04:44:03.378Z,4.90
2022-11-23T04:45:03.258Z,4.90
2022-11-23T04:46:03.239Z,4.90
2022-11-23T04:47:03.107Z,4.80
2022-11-23T04:48:03.215Z,4.80
2022-11-23T04:49:03.064Z,4.80
2022-11-23T04:50:02.985Z,4.80
2022-11-23T04:51:03.011Z,4.70
2022-11-23T04:52:03.059Z,4.70
2022-11-23T04:53:02.941Z,4.70
2022-11-23T04:54:02.883Z,4.70
2022-11-23T04:55:02.833Z,4.70
2022-11-23T04:56:02.872Z,4.60
2022-11-23T04:57:02.850Z,4.60
2022-11-23T04:58:02.725Z,4.60
2022-11-23T04:59:02.709Z,4.60
2022-11-23T05:00:02.728Z,4.60
2022-11-23T05:01:02.762Z,4.60
2022-11-23T05:02:02.783Z,4.60
2022-11-23T05:03:02.631Z,4.60
2022-11-23T05:04:02.613Z,4.60
2022-11-23T05:05:03.541Z,4.60
2022-11-23T05:06:03.472Z,4.60
2022-11-23T05:07:03.377Z,4.60
2022-11-23T05:08:03.408Z,4.60
2022-11-23T05:09:03.365Z,4.60
2022-11-23T05:10:03.403Z,4.60
2022-11-23T05:11:03.414Z,4.60
2022-11-23T05:12:03.334Z,4.60
2022-11-23T05:13:03.294Z,4.60
2022-11-23T05:14:03.199Z,4.60
2022-11-23T05:15:03.115Z,4.60
2022-11-23T05:16:03.051Z,4.60
2022-11-23T05:17:03.086Z,4.60
2022-11-23T05:18:03.017Z,4.60
2022-11-23T05:19:02.998Z,4.60
2022-11-23T05:20:02.953Z,4.60
2022-11-23T05:21:02.964Z,4.60
2022-11-23T05:22:02.892Z,4.60
2022-11-23T05:23:02.823Z,4.70
2022-11-23T05:24:02.746Z,4.70
2022-11-23T05:25:03.068Z,4.60
2022-11-23T05:26:02.990Z,4.70
2022-11-23T05:27:02.853Z,4.70
2022-11-23T05:28:11.292Z,4.70
2022-11-23T05:29:02.798Z,4.70
2022-11-23T05:30:02.840Z,4.70
2022-11-23T05:31:02.727Z,4.70
2022-11-23T05:32:02.778Z,4.70
2022-11-23T05:33:02.745Z,4.70
2022-11-23T05:34:02.736Z,4.70
2022-11-23T05:35:02.609Z,4.70
2022-11-23T05:36:03.550Z,4.60
2022-11-23T05:37:03.505Z,4.60
2022-11-23T05:38:03.470Z,4.60
2022-11-23T05:39:03.451Z,4.60
2022-11-23T05:40:03.380Z,4.60
2022-11-23T05:41:03.371Z,4.60
2022-11-23T05:42:03.311Z,4.60
2022-11-23T05:43:03.360Z,4.60
2022-11-23T05:44:03.288Z,4.60
2022-11-23T05:45:05.368Z,4.60
2022-11-23T05:46:03.069Z,4.60
2022-11-23T05:47:03.110Z,4.60
2022-11-23T05:48:03.244Z,4.60
2022-11-23T05:49:03.107Z,4.60
2022-11-23T05:50:03.119Z,4.60
2022-11-23T05:51:05.334Z,4.50
2022-11-23T05:52:03.017Z,4.50
2022-11-23T05:53:03.002Z,4.50
2022-11-23T05:54:03.000Z,4.50
2022-11-23T05:55:03.078Z,4.50
2022-11-23T05:56:02.963Z,4.50
2022-11-23T05:57:02.969Z,4.50
2022-11-23T05:58:02.853Z,4.50
2022-11-23T05:59:02.753Z,4.50
2022-11-23T06:00:02.838Z,4.50
2022-11-23T06:01:02.864Z,4.50
2022-11-23T06:02:02.784Z,4.40
2022-11-23T06:03:02.830Z,4.50
2022-11-23T06:04:02.910Z,4.40
2022-11-23T06:05:02.863Z,4.40
2022-11-23T06:06:02.862Z,4.40
2022-11-23T06:07:02.828Z,4.40
2022-11-23T06:08:02.808Z,4.40
2022-11-23T06:09:02.734Z,4.40
2022-11-23T06:10:02.632Z,4.40
2022-11-23T06:11:02.558Z,4.40
2022-11-23T06:12:02.658Z,4.40
2022-11-23T06:13:02.633Z,4.40
2022-11-23T06:14:04.502Z,4.40
2022-11-23T06:15:03.500Z,4.40
2022-11-23T06:16:03.578Z,4.40
2022-11-23T06:17:03.480Z,4.40
2022-11-23T06:18:03.613Z,4.40
2022-11-23T06:19:03.499Z,4.40
2022-11-23T06:20:03.426Z,4.40
2022-11-23T06:21:03.371Z,4.40
2022-11-23T06:22:03.423Z,4.40
2022-11-23T06:23:03.410Z,4.40
2022-11-23T06:24:03.483Z,4.40
2022-11-23T06:25:03.384Z,4.40
2022-11-23T06:26:03.379Z,4.50
2022-11-23T06:27:03.358Z,4.40
2022-11-23T06:28:03.238Z,4.40
2022-11-23T06:29:03.307Z,4.40
2022-11-23T06:30:03.287Z,4.50
2022-11-23T06:31:03.183Z,4.40
2022-11-23T06:32:03.307Z,4.40
2022-11-23T06:33:03.337Z,4.50
2022-11-23T06:34:03.335Z,4.40
2022-11-23T06:35:03.292Z,4.40
2022-11-23T06:36:03.231Z,4.40
2022-11-23T06:37:03.188Z,4.40
2022-11-23T06:38:03.240Z,4.40
2022-11-23T06:39:03.132Z,4.40
2022-11-23T06:40:03.031Z,4.40
2022-11-23T06:41:03.031Z,4.40
2022-11-23T06:42:23.647Z,4.40
2022-11-23T06:43:03.062Z,4.40
2022-11-23T06:44:03.029Z,4.40
2022-11-23T06:45:02.937Z,4.40
2022-11-23T06:46:02.840Z,4.40
2022-11-23T06:47:02.819Z,4.40
2022-11-23T06:48:02.704Z,4.40
2022-11-23T06:49:02.737Z,4.40
2022-11-23T06:50:02.666Z,4.40
2022-11-23T06:51:03.592Z,4.40
2022-11-23T06:52:03.418Z,4.40
2022-11-23T06:53:03.394Z,4.30
2022-11-23T06:54:03.336Z,4.40
2022-11-23T06:55:03.385Z,4.40
2022-11-23T06:56:03.400Z,4.30
2022-11-23T06:57:03.433Z,4.40
2022-11-23T06:58:03.348Z,4.40
2022-11-23T06:59:03.232Z,4.40
2022-11-23T07:00:03.254Z,4.40
2022-11-23T07:01:03.100Z,4.40
2022-11-23T07:02:03.169Z,4.40
2022-11-23T07:03:03.100Z,4.40
2022-11-23T07:04:03.044Z,4.40
2022-11-23T07:05:02.989Z,4.40
2022-11-23T07:06:02.859Z,4.40
2022-11-23T07:07:02.789Z,4.40
2022-11-23T07:08:02.914Z,4.40
2022-11-23T07:09:02.741Z,4.50
2022-11-23T07:10:06.764Z,4.50
2022-11-23T07:11:02.938Z,4.50
2022-11-23T07:12:02.887Z,4.50
2022-11-23T07:13:02.845Z,4.50
2022-11-23T07:14:02.815Z,4.50
2022-11-23T07:15:02.774Z,4.50
2022-11-23T07:16:02.691Z,4.50
2022-11-23T07:17:02.918Z,4.50
2022-11-23T07:18:02.848Z,4.50
2022-11-23T07:19:03.323Z,4.50
2022-11-23T07:20:03.367Z,4.60
2022-11-23T07:21:03.365Z,4.60
2022-11-23T07:22:03.168Z,4.60
2022-11-23T07:23:03.117Z,4.60
2022-11-23T07:24:03.019Z,4.60
2022-11-23T07:25:02.925Z,4.60
2022-11-23T07:26:02.923Z,4.60
2022-11-23T07:27:02.850Z,4.60
2022-11-23T07:28:02.836Z,4.60
2022-11-23T07:29:02.744Z,4.60
2022-11-23T07:30:02.698Z,4.60
2022-11-23T07:31:02.629Z,4.60
2022-11-23T07:32:02.580Z,4.60
2022-11-23T07:33:02.753Z,4.60
2022-11-23T07:34:02.755Z,4.60
2022-11-23T07:35:02.806Z,4.60
2022-11-23T07:36:02.822Z,4.60
2022-11-23T07:37:02.874Z,4.60
2022-11-23T07:38:02.725Z,4.60
2022-11-23T07:39:02.678Z,4.60
2022-11-23T07:40:03.102Z,4.60
2022-11-23T07:41:02.815Z,4.60
2022-11-23T07:42:30.785Z,4.60
2022-11-23T07:43:02.709Z,4.60
2022-11-23T07:44:02.645Z,4.60
2022-11-23T07:45:02.615Z,4.60
2022-11-23T07:46:02.653Z,4.60
2022-11-23T07:47:02.755Z,4.60
2022-11-23T07:48:02.770Z,4.60
2022-11-23T07:49:02.914Z,4.60
2022-11-23T07:50:02.890Z,4.60
2022-11-23T07:51:02.968Z,4.60
2022-11-23T07:52:02.881Z,4.60
2022-11-23T07:53:02.847Z,4.60
2022-11-23T07:54:02.815Z,4.70
2022-11-23T07:55:02.754Z,4.70
2022-11-23T07:56:02.882Z,4.70
2022-11-23T07:57:02.761Z,4.70
2022-11-23T07:58:02.823Z,4.80
2022-11-23T07:59:02.692Z,4.80
2022-11-23T08:00:02.757Z,4.80
2022-11-23T08:01:02.655Z,4.90
2022-11-23T08:02:02.791Z,4.90
2022-11-23T08:03:26.492Z,4.90
2022-11-23T08:04:02.693Z,5.00
2022-11-23T08:05:02.691Z,5.00
2022-11-23T08:06:02.771Z,5.00
2022-11-23T08:07:03.015Z,5.10
2022-11-23T08:08:02.985Z,5.10
2022-11-23T08:09:02.948Z,5.10
2022-11-23T08:10:02.859Z,5.20
2022-11-23T08:11:02.820Z,5.20
2022-11-23T08:12:02.830Z,5.20
2022-11-23T08:13:02.735Z,5.20
2022-11-23T08:14:02.565Z,5.30
2022-11-23T08:15:03.538Z,5.30
2022-11-23T08:16:03.499Z,5.30
2022-11-23T08:17:03.529Z,5.30
2022-11-23T08:18:02.603Z,5.40
2022-11-23T08:19:02.641Z,5.40
2022-11-23T08:20:02.655Z,5.40
2022-11-23T08:21:02.623Z,5.40
2022-11-23T08:22:03.528Z,5.40
2022-11-23T08:23:03.573Z,5.40
2022-11-23T08:24:03.529Z,5.50
2022-11-23T08:25:02.758Z,5.50
2022-11-23T08:26:02.745Z,5.50
2022-11-23T08:27:02.756Z,5.50
2022-11-23T08:28:02.852Z,5.50
2022-11-23T08:29:02.786Z,5.50
2022-11-23T08:30:02.699Z,5.60
2022-11-23T08:31:02.617Z,5.60
2022-11-23T08:32:03.590Z,5.60
2022-11-23T08:33:03.662Z,5.60
2022-11-23T08:34:03.901Z,5.70
2022-11-23T08:35:02.584Z,5.70
2022-11-23T08:36:02.618Z,5.70
2022-11-23T08:37:03.540Z,5.70
2022-11-23T08:38:03.412Z,5.70
2022-11-23T08:39:03.423Z,5.80
2022-11-23T08:40:03.342Z,5.80
2022-11-23T08:41:03.248Z,5.80
2022-11-23T08:42:03.282Z,5.80
2022-11-23T08:43:03.273Z,5.90
2022-11-23T08:44:03.240Z,5.90
2022-11-23T08:45:03.176Z,5.90
2022-11-23T08:46:05.764Z,5.90
2022-11-23T08:47:03.217Z,5.90
2022-11-23T08:48:03.178Z,6.00
2022-11-23T08:49:03.203Z,6.00
2022-11-23T08:50:03.212Z,6.00
2022-11-23T08:51:03.250Z,6.00
2022-11-23T08:52:03.147Z,6.00
2022-11-23T08:53:03.120Z,6.10
2022-11-23T08:54:03.049Z,6.10
2022-11-23T08:55:03.044Z,6.10
2022-11-23T08:56:02.981Z,6.10
2022-11-23T08:57:02.995Z,6.10
2022-11-23T08:58:02.939Z,6.20
2022-11-23T08:59:02.913Z,6.20
2022-11-23T09:00:02.988Z,6.20
2022-11-23T09:01:03.027Z,6.20
2022-11-23T09:02:02.986Z,6.20
2022-11-23T09:03:02.855Z,6.20
2022-11-23T09:04:02.813Z,6.30
2022-11-23T09:05:02.725Z,6.30
2022-11-23T09:06:02.674Z,6.30
2022-11-23T09:07:03.610Z,6.30
2022-11-23T09:08:03.552Z,6.30
2022-11-23T09:09:03.423Z,6.30
2022-11-23T09:10:03.413Z,6.40
2022-11-23T09:11:03.491Z,6.40
2022-11-23T09:12:02.650Z,6.40
2022-11-23T09:13:03.537Z,6.40
2022-11-23T09:14:03.579Z,6.40
2022-11-23T09:15:03.472Z,6.50
2022-11-23T09:16:02.611Z,6.50
2022-11-23T09:17:03.608Z,6.50
2022-11-23T09:18:02.645Z,6.50
2022-11-23T09:19:03.572Z,6.50
2022-11-23T09:20:02.647Z,6.50
2022-11-23T09:21:03.584Z,6.60
2022-11-23T09:22:03.535Z,6.60
2022-11-23T09:23:02.566Z,6.60
2022-11-23T09:24:02.676Z,6.60
2022-11-23T09:25:02.664Z,6.60
2022-11-23T09:26:02.662Z,6.60
2022-11-23T09:27:02.615Z,6.60
2022-11-23T09:28:03.601Z,6.70
2022-11-23T09:29:02.677Z,6.70
2022-11-23T09:30:02.737Z,6.70
2022-11-23T09:31:02.749Z,6.80
2022-11-23T09:32:02.721Z,6.80
2022-11-23T09:33:02.832Z,6.80
2022-11-23T09:34:02.868Z,6.90
2022-11-23T09:35:02.829Z,6.90
2022-11-23T09:36:02.720Z,6.90
2022-11-23T09:37:02.867Z,7.00
2022-11-23T09:38:02.759Z,7.00
2022-11-23T09:39:02.735Z,7.00
2022-11-23T09:40:02.682Z,7.00
2022-11-23T09:41:02.657Z,7.10
2022-11-23T09:42:03.532Z,7.10
2022-11-23T09:43:03.541Z,7.10
2022-11-23T09:44:03.492Z,7.10
2022-11-23T09:45:03.498Z,7.20
2022-11-23T09:46:03.590Z,7.20
2022-11-23T09:47:02.619Z,7.20
2022-11-23T09:48:02.657Z,7.20
2022-11-23T09:49:03.585Z,7.20
2022-11-23T09:50:03.532Z,7.20
2022-11-23T09:51:03.498Z,7.20
2022-11-23T09:52:03.497Z,7.20
2022-11-23T09:53:03.497Z,7.20
2022-11-23T09:54:03.509Z,7.20
2022-11-23T09:55:03.688Z,7.20
2022-11-23T09:56:03.526Z,7.20
2022-11-23T09:57:03.410Z,7.20
2022-11-23T09:58:03.598Z,7.20
2022-11-23T09:59:03.524Z,7.20
2022-11-23T10:00:03.439Z,7.20
2022-11-23T10:01:03.419Z,7.20
2022-11-23T10:02:03.399Z,7.10
2022-11-23T10:03:03.353Z,7.20
2022-11-23T10:04:03.376Z,7.10
2022-11-23T10:05:03.357Z,7.10
2022-11-23T10:06:03.380Z,7.10
2022-11-23T10:07:03.402Z,7.10
2022-11-23T10:08:03.278Z,7.10
2022-11-23T10:09:03.215Z,7.10
2022-11-23T10:10:03.134Z,7.10
2022-11-23T10:11:03.243Z,7.10
2022-11-23T10:12:03.167Z,7.10
2022-11-23T10:13:03.204Z,7.10
2022-11-23T10:14:03.185Z,7.20
2022-11-23T10:15:03.232Z,7.20
2022-11-23T10:16:03.190Z,7.20
2022-11-23T10:17:03.302Z,7.20
2022-11-23T10:18:03.357Z,7.20
2022-11-23T10:19:03.293Z,7.20
2022-11-23T10:20:03.236Z,7.30
2022-11-23T10:21:03.196Z,7.30
2022-11-23T10:22:03.122Z,7.30
2022-11-23T10:23:03.025Z,7.30
2022-11-23T10:24:03.035Z,7.30
2022-11-23T10:25:03.128Z,7.30
2022-11-23T10:26:03.112Z,7.40
2022-11-23T10:27:03.116Z,7.40
2022-11-23T10:28:03.138Z,7.40
2022-11-23T10:29:02.992Z,7.40
2022-11-23T10:30:02.942Z,7.50
2022-11-23T10:31:03.003Z,7.50
2022-11-23T10:32:02.915Z,7.50
2022-11-23T10:33:02.843Z,7.50
2022-11-23T10:34:02.797Z,7.60
2022-11-23T10:35:02.774Z,7.60
2022-11-23T10:36:02.815Z,7.70
2022-11-23T10:37:02.795Z,7.70
2022-11-23T10:38:02.820Z,7.70
2022-11-23T10:39:02.789Z,7.80
2022-11-23T10:40:02.819Z,7.80
2022-11-23T10:41:02.811Z,7.80
2022-11-23T10:42:02.763Z,7.90
2022-11-23T10:43:02.873Z,7.90
2022-11-23T10:44:02.926Z,7.90
2022-11-23T10:45:02.920Z,8.00
2022-11-23T10:46:03.014Z,8.00
2022-11-23T10:47:02.960Z,8.10
2022-11-23T10:48:03.044Z,8.10
2022-11-23T10:49:02.925Z,8.10
2022-11-23T10:50:02.916Z,8.20
2022-11-23T10:51:02.850Z,8.20
2022-11-23T10:52:02.781Z,8.20
2022-11-23T10:53:02.693Z,8.30
2022-11-23T10:54:05.343Z,8.30
2022-11-23T10:55:07.738Z,8.30
2022-11-23T10:56:02.683Z,8.30
2022-11-23T10:57:02.701Z,8.40
2022-11-23T10:58:02.658Z,8.40
2022-11-23T10:59:02.697Z,8.40
2022-11-23T11:00:02.678Z,8.40
2022-11-23T11:01:02.723Z,8.50
2022-11-23T11:02:02.689Z,8.50
2022-11-23T11:03:02.582Z,8.50
2022-11-23T11:04:03.510Z,8.50
2022-11-23T11:05:03.519Z,8.50
2022-11-23T11:06:10.353Z,8.60
2022-11-23T11:07:03.540Z,8.60
2022-11-23T11:08:02.672Z,8.60
2022-11-23T11:09:03.384Z,8.60
2022-11-23T11:10:02.681Z,8.60
2022-11-23T11:11:02.594Z,8.60
2022-11-23T11:12:03.540Z,8.60
2022-11-23T11:13:02.577Z,8.70
2022-11-23T11:14:03.577Z,8.70
2022-11-23T11:15:10.684Z,8.70
2022-11-23T11:16:03.408Z,8.70
2022-11-23T11:17:03.421Z,8.70
2022-11-23T11:18:03.332Z,8.70
2022-11-23T11:19:03.338Z,8.70
2022-11-23T11:20:03.363Z,8.80
2022-11-23T11:21:03.336Z,8.80
2022-11-23T11:22:03.325Z,8.80
2022-11-23T11:23:03.160Z,8.80
2022-11-23T11:24:03.286Z,8.80
2022-11-23T11:25:03.319Z,8.80
2022-11-23T11:26:03.251Z,8.80
2022-11-23T11:27:03.246Z,8.80
2022-11-23T11:28:03.177Z,8.80
2022-11-23T11:29:03.218Z,8.80
2022-11-23T11:30:03.202Z,8.80
2022-11-23T11:31:03.206Z,8.80
2022-11-23T11:32:03.006Z,8.80
2022-11-23T11:33:04.817Z,8.80
2022-11-23T11:34:03.162Z,8.80
2022-11-23T11:35:03.193Z,8.80
2022-11-23T11:36:03.176Z,8.80
2022-11-23T11:37:03.207Z,8.80
2022-11-23T11:38:03.141Z,8.80
2022-11-23T11:39:18.617Z,8.80
2022-11-23T11:40:03.090Z,8.80
2022-11-23T11:41:03.066Z,8.70
2022-11-23T11:42:03.010Z,8.70
2022-11-23T11:43:02.987Z,8.70
2022-11-23T11:44:02.985Z,8.70
2022-11-23T11:45:03.001Z,8.70
2022-11-23T11:46:28.360Z,8.70
2022-11-23T11:47:02.959Z,8.70
2022-11-23T11:48:02.987Z,8.70
2022-11-23T11:49:02.856Z,8.70
2022-11-23T11:50:02.853Z,8.70
2022-11-23T11:51:02.819Z,8.70
2022-11-23T11:52:02.738Z,8.70
2022-11-23T11:53:02.745Z,8.70
2022-11-23T11:54:02.800Z,8.70
2022-11-23T11:55:02.904Z,8.70
2022-11-23T11:56:02.953Z,8.80
2022-11-23T11:57:02.909Z,8.80
2022-11-23T11:58:02.845Z,8.80
2022-11-23T11:59:02.912Z,8.80
2022-11-23T12:00:03.094Z,8.80
2022-11-23T12:01:03.142Z,8.80
2022-11-23T12:02:03.062Z,8.80
2022-11-23T12:03:03.015Z,8.80
2022-11-23T12:04:02.972Z,8.80
2022-11-23T12:05:02.928Z,8.80
2022-11-23T12:06:02.878Z,8.80
2022-11-23T12:07:02.811Z,8.80
2022-11-23T12:08:02.840Z,8.90
2022-11-23T12:09:02.924Z,8.90
2022-11-23T12:10:02.903Z,8.90
2022-11-23T12:11:02.825Z,8.90
2022-11-23T12:12:02.802Z,8.90
2022-11-23T12:13:02.852Z,9.00
2022-11-23T12:14:02.928Z,9.00
2022-11-23T12:15:10.998Z,9.00
2022-11-23T12:16:03.388Z,9.00
2022-11-23T12:17:31.176Z,9.10
2022-11-23T12:18:03.328Z,9.10
2022-11-23T12:19:03.273Z,9.10
2022-11-23T12:20:03.155Z,9.10
2022-11-23T12:21:03.355Z,9.10
2022-11-23T12:22:03.223Z,9.10
2022-11-23T12:23:03.079Z,9.10
2022-11-23T12:24:03.105Z,9.10
2022-11-23T12:25:03.149Z,9.10
2022-11-23T12:26:03.149Z,9.10
2022-11-23T12:27:03.105Z,9.10
2022-11-23T12:28:02.982Z,9.10
2022-11-23T12:29:03.023Z,9.10
2022-11-23T12:30:02.988Z,9.10
2022-11-23T12:31:02.944Z,9.10
2022-11-23T12:32:02.845Z,9.10
2022-11-23T12:33:02.921Z,9.10
2022-11-23T12:34:02.607Z,9.10
2022-11-23T12:35:02.684Z,9.10
2022-11-23T12:36:02.710Z,9.10
2022-11-23T12:37:02.702Z,9.10
2022-11-23T12:38:02.609Z,9.10
2022-11-23T12:39:03.522Z,9.10
2022-11-23T12:40:03.609Z,9.10
2022-11-23T12:41:03.010Z,9.10
2022-11-23T12:42:03.128Z,9.10
2022-11-23T12:43:03.125Z,9.10
2022-11-23T12:44:03.071Z,9.10
2022-11-23T12:45:03.156Z,9.10
2022-11-23T12:46:03.102Z,9.10
2022-11-23T12:47:03.066Z,9.10
2022-11-23T12:48:02.983Z,9.10
2022-11-23T12:49:03.043Z,9.10
2022-11-23T12:50:02.965Z,9.10
2022-11-23T12:51:02.804Z,9.10
2022-11-23T12:52:02.719Z,9.10
2022-11-23T12:53:02.771Z,9.10
2022-11-23T12:54:02.726Z,9.10
2022-11-23T12:55:02.581Z,9.10
2022-11-23T12:56:02.610Z,9.10
2022-11-23T12:57:03.540Z,9.10
2022-11-23T12:58:03.513Z,9.10
2022-11-23T12:59:03.447Z,9.10
2022-11-23T13:00:03.374Z,9.10
2022-11-23T13:01:03.422Z,9.10
2022-11-23T13:02:03.431Z,9.10
2022-11-23T13:03:03.502Z,9.10
2022-11-23T13:04:03.376Z,9.10
2022-11-23T13:05:02.715Z,9.10
2022-11-23T13:06:02.641Z,9.10
2022-11-23T13:07:27.286Z,9.10
2022-11-23T13:08:03.041Z,9.10
2022-11-23T13:09:02.950Z,9.10
2022-11-23T13:10:03.280Z,9.10
2022-11-23T13:11:03.242Z,9.10
2022-11-23T13:12:03.139Z,9.10
2022-11-23T13:13:03.045Z,9.10
2022-11-23T13:14:03.002Z,9.10
2022-11-23T13:15:02.900Z,9.10
2022-11-23T13:16:02.911Z,9.00
2022-11-23T13:17:03.188Z,9.00
2022-11-23T13:18:03.003Z,9.00